Time;durP1;ratioP1;P1;durP2;ratioP2;P2;SDS_P1;SDS_P2;PMS_P1;PMS_P2;Temp;Humidity;BMP_temperature;BMP_pressure;BME280_temperature;BME280_humidity;BME280_pressure;Samples;Min_cycle;Max_cycle;Signal;HPM_P1;HPM_P2
2021/12/04 00:01:51;;;;;;;17.83;2.78;;;;;;;23.61;52.02;98274.47;7310192;19;130279;-50
2021/12/04 00:04:22;;;;;;;14.35;2.28;;;;;;;23.71;51.29;98268.91;7309399;19;129169;-52
2021/12/04 00:06:49;;;;;;;7.25;1.40;;;;;;;23.78;51.11;98268.00;7313776;19;129962;-46
2021/12/04 00:09:15;;;;;;;;;;;;;;;23.85;51.36;98260.19;7313480;19;129668;-46
2021/12/04 00:11:50;;;;;;;10.57;1.63;;;;;;;23.95;51.33;98261.50;7310780;19;130595;-54
2021/12/04 00:14:16;;;;;;;19.40;2.88;;;;;;;24.03;50.25;98239.59;7307995;19;130377;-54
2021/12/04 00:16:41;;;;;;;19.67;2.80;;;;;;;24.18;50.11;98254.28;7307491;19;144638;-47
2021/12/04 00:19:06;;;;;;;16.52;2.42;;;;;;;24.16;50.53;98237.88;7312851;19;154302;-54
2021/12/04 00:21:31;;;;;;;18.33;2.35;;;;;;;24.25;50.14;98257.78;7309373;19;159408;-51
2021/12/04 00:23:57;;;;;;;31.43;3.87;;;;;;;24.25;50.18;98268.28;7310582;19;158427;-51
2021/12/04 00:26:22;;;;;;;24.52;3.80;;;;;;;24.20;49.95;98257.53;7307763;19;154749;-52
2021/12/04 00:28:47;;;;;;;10.57;1.87;;;;;;;24.12;50.64;98251.59;7309902;19;154895;-50
2021/12/04 00:31:13;;;;;;;18.35;2.92;;;;;;;24.11;50.78;98248.13;7308491;19;157272;-45
2021/12/04 00:33:39;;;;;;;57.22;6.55;;;;;;;24.03;50.98;98237.78;7308390;19;130743;-46
2021/12/04 00:36:20;;;;;;;;;;;;;;;23.95;50.91;98245.75;7306184;19;129448;-45
2021/12/04 00:49:41;;;;;;;14.13;3.22;;;;;;;23.62;52.02;98210.47;7307636;19;131484;-69
2021/12/04 00:52:06;;;;;;;7.93;1.48;;;;;;;23.66;52.36;98218.78;7310094;19;146605;-69
2021/12/04 00:54:32;;;;;;;19.95;3.90;;;;;;;23.65;51.92;98217.97;7310792;19;158350;-71
2021/12/04 00:56:57;;;;;;;5.30;1.20;;;;;;;23.57;52.68;98215.47;7296483;19;152274;-70
2021/12/04 00:59:23;;;;;;;9.95;2.10;;;;;;;23.58;52.09;98211.03;7314069;19;129529;-70
2021/12/04 01:01:48;;;;;;;7.55;1.55;;;;;;;23.54;51.91;98205.34;7314070;19;129184;-69
2021/12/04 01:04:17;;;;;;;11.80;2.17;;;;;;;23.52;52.78;98206.56;7308979;19;129852;-71
2021/12/04 01:06:43;;;;;;;9.00;1.58;;;;;;;23.47;52.74;98204.47;7306549;19;129944;-70
2021/12/04 01:09:11;;;;;;;2.67;0.68;;;;;;;23.42;52.26;98204.19;7313722;19;129216;-69
2021/12/04 01:11:39;;;;;;;10.85;3.08;;;;;;;23.46;53.05;98196.78;7308892;19;129492;-70
2021/12/04 01:14:05;;;;;;;6.90;1.45;;;;;;;23.45;52.38;98196.00;7313566;19;129900;-72
2021/12/04 01:16:30;;;;;;;13.10;2.28;;;;;;;23.45;52.67;98196.00;7311204;19;130919;-70
2021/12/04 01:18:55;;;;;;;12.57;2.88;;;;;;;23.47;52.44;98191.34;7311467;19;154474;-69
2021/12/04 01:21:21;;;;;;;10.40;1.98;;;;;;;23.46;52.30;98197.59;7291084;19;158614;-69
2021/12/04 01:23:46;;;;;;;18.60;3.63;;;;;;;23.49;52.42;98197.22;7311793;19;158435;-70
2021/12/04 01:26:11;;;;;;;31.90;4.70;;;;;;;23.53;52.58;98195.88;7296183;19;157169;-49
2021/12/04 01:28:36;;;;;;;27.95;4.43;;;;;;;23.56;52.13;98192.88;7305710;19;142927;-49
2021/12/04 01:31:02;;;;;;;36.72;4.22;;;;;;;23.66;51.92;98197.81;7307645;19;158963;-49
2021/12/04 01:33:27;;;;;;;27.50;3.50;;;;;;;23.67;51.55;98197.63;7296706;19;158462;-47
2021/12/04 01:38:21;;;;;;;33.60;4.53;;;;;;;23.78;51.11;98191.88;7288758;19;130277;-48
2021/12/04 01:40:46;;;;;;;42.85;6.57;;;;;;;23.81;51.74;98193.31;7297299;19;130710;-45
2021/12/04 01:43:11;;;;;;;42.63;5.33;;;;;;;23.88;51.69;98192.34;7288719;19;131658;-48
2021/12/04 01:45:37;;;;;;;11.53;1.60;;;;;;;23.86;51.80;98197.00;7305858;19;154897;-47
2021/12/04 01:48:02;;;;;;;23.23;2.60;;;;;;;23.87;51.11;98196.00;7307555;19;129035;-45
2021/12/04 01:50:29;;;;;;;18.90;2.55;;;;;;;23.86;50.91;98194.38;7310644;19;130388;-49
2021/12/04 01:52:56;;;;;;;;;;;;;;;23.79;51.43;98188.25;7298814;19;130119;-52
2021/12/04 01:55:33;;;;;;;46.88;7.43;;;;;;;23.74;51.99;98188.00;7289660;19;131716;-51
2021/12/04 02:00:34;;;;;;;26.92;3.08;;;;;;;23.72;51.69;98192.63;7283393;19;157101;-49
2021/12/04 02:02:59;;;;;;;16.77;2.10;;;;;;;23.67;52.46;98186.31;7310331;19;130439;-50
2021/12/04 02:05:24;;;;;;;40.92;5.22;;;;;;;23.66;52.44;98190.75;7299182;19;154429;-46
2021/12/04 02:07:50;;;;;;;12.63;1.50;;;;;;;23.62;52.32;98202.59;7309967;19;130096;-46
2021/12/04 02:10:15;;;;;;;17.27;2.38;;;;;;;23.57;52.45;98204.97;7289871;19;158242;-49
2021/12/04 02:12:41;;;;;;;21.20;2.75;;;;;;;23.52;52.22;98199.47;7307023;19;132078;-49
2021/12/04 02:15:11;;;;;;;17.75;2.22;;;;;;;23.52;52.24;98196.84;7292975;19;129891;-48
2021/12/04 02:17:36;;;;;;;12.43;1.63;;;;;;;23.50;52.09;98193.63;7310399;19;129108;-48
2021/12/04 02:20:03;;;;;;;20.80;2.47;;;;;;;23.45;52.64;98196.00;7289694;19;158170;-49
2021/12/04 02:22:28;;;;;;;32.60;3.47;;;;;;;23.38;53.02;98184.59;7310962;19;129292;-49
2021/12/04 02:24:53;;;;;;;19.20;2.47;;;;;;;23.40;52.92;98193.09;7305002;19;154521;-50
2021/12/04 02:27:18;;;;;;;26.55;3.53;;;;;;;23.37;52.46;98190.03;7301429;19;154185;-53
2021/12/04 02:29:47;;;;;;;122.70;13.10;;;;;;;23.38;52.68;98199.50;7300574;19;159512;-48
2021/12/04 02:32:14;;;;;;;30.35;3.35;;;;;;;23.38;52.48;98192.47;7302638;19;130396;-48
2021/12/04 02:34:40;;;;;;;62.03;8.18;;;;;;;23.38;52.71;98189.03;7302305;19;130452;-46
2021/12/04 02:37:08;;;;;;;18.25;2.17;;;;;;;23.43;52.37;98191.91;7295558;19;157119;-48
2021/12/04 02:39:36;;;;;;;31.27;3.92;;;;;;;23.44;52.64;98183.03;7306884;19;130133;-48
2021/12/04 02:42:05;;;;;;;19.38;2.38;;;;;;;23.48;52.69;98179.88;7298374;19;130819;-46
2021/12/04 02:44:40;;;;;;;34.65;4.32;;;;;;;23.47;52.71;98180.84;7305157;19;129710;-49
2021/12/04 02:47:07;;;;;;;44.42;5.60;;;;;;;23.53;52.58;98172.25;7261978;19;133010;-51
2021/12/04 02:49:33;;;;;;;20.88;3.28;;;;;;;23.58;52.37;98169.88;7282479;19;130404;-47
2021/12/04 02:52:07;;;;;;;15.63;1.98;;;;;;;23.63;52.12;98158.81;7307771;19;130441;-51
2021/12/04 02:54:33;;;;;;;26.42;3.55;;;;;;;23.67;51.91;98153.00;7289799;19;129981;-51
2021/12/04 02:57:00;;;;;;;23.55;3.42;;;;;;;23.72;51.77;98155.06;7307002;19;129810;-47
2021/12/04 02:59:26;;;;;;;18.23;2.72;;;;;;;23.73;51.44;98147.03;7297170;19;131986;-54
2021/12/04 03:01:54;;;;;;;10.07;2.03;;;;;;;23.77;51.35;98142.19;7302602;19;130398;-48
2021/12/04 03:04:21;;;;;;;22.65;2.85;;;;;;;23.76;51.28;98130.06;7296826;19;130801;-48
2021/12/04 03:06:47;;;;;;;20.58;2.78;;;;;;;23.76;52.09;98136.16;7304457;19;129042;-54
2021/12/04 03:09:13;;;;;;;19.20;2.67;;;;;;;23.72;51.32;98134.88;7299415;19;130121;-48
2021/12/04 03:11:38;;;;;;;54.92;8.10;;;;;;;23.70;51.52;98130.84;7303780;19;130347;-49
2021/12/04 03:14:05;;;;;;;29.45;3.67;;;;;;;23.68;52.17;98120.53;7292231;19;157120;-49
2021/12/04 03:16:34;;;;;;;;;;;;;;;23.62;52.42;98120.47;7294454;19;129820;-51
2021/12/04 03:19:00;;;;;;;105.57;16.55;;;;;;;23.60;52.57;98109.34;7307720;19;130165;-51
2021/12/04 03:21:26;;;;;;;20.00;2.55;;;;;;;23.54;52.56;98112.72;7296299;19;131563;-47
2021/12/04 03:24:00;;;;;;;28.00;3.65;;;;;;;23.45;52.58;98091.06;7315800;19;129328;-47
2021/12/04 03:26:26;;;;;;;16.40;2.50;;;;;;;23.49;52.40;98099.34;7301611;19;129756;-51
2021/12/04 03:28:53;;;;;;;19.02;2.58;;;;;;;23.44;52.80;98094.66;7312439;19;128923;-51
2021/12/04 03:41:58;;;;;;;11.48;1.55;;;;;;;23.33;53.47;98074.19;7295586;19;130945;-49
2021/12/04 03:44:23;;;;;;;23.15;2.72;;;;;;;23.36;52.48;98080.88;7310862;19;150635;-49
2021/12/04 03:46:50;;;;;;;22.45;3.05;;;;;;;23.37;52.69;98067.56;7290253;19;154343;-49
2021/12/04 03:49:15;;;;;;;218.93;30.10;;;;;;;23.37;53.11;98067.56;7282348;19;130260;-48
2021/12/04 03:51:40;;;;;;;17.15;1.98;;;;;;;23.43;53.02;98066.81;7287058;19;130072;-49
2021/12/04 03:54:06;;;;;;;18.27;2.03;;;;;;;23.37;52.59;98051.81;7311048;19;153642;-49
2021/12/04 03:56:32;;;;;;;28.08;3.17;;;;;;;23.51;52.57;98064.06;7311304;19;154479;-49
2021/12/04 03:58:57;;;;;;;21.80;3.25;;;;;;;23.67;51.88;98058.53;7303142;19;129600;-49
2021/12/04 04:01:23;;;;;;;18.47;2.27;;;;;;;23.76;51.49;98057.41;7312800;19;158689;-49
2021/12/04 04:03:48;;;;;;;30.63;4.20;;;;;;;23.89;51.39;98049.63;7309962;19;147740;-49
2021/12/04 04:06:14;;;;;;;37.60;4.90;;;;;;;24.12;50.39;98058.09;7310029;19;129558;-48
2021/12/04 04:08:40;;;;;;;59.17;9.30;;;;;;;24.35;50.36;98069.13;7308641;19;131926;-49
2021/12/04 04:11:06;;;;;;;18.17;2.30;;;;;;;24.55;49.61;98060.53;7306701;19;129709;-51
2021/12/04 04:13:31;;;;;;;27.10;3.40;;;;;;;24.73;49.24;98061.66;7309522;19;129534;-49
2021/12/04 04:15:59;;;;;;;15.75;2.15;;;;;;;24.92;48.63;98060.09;7297891;19;131638;-48
2021/12/04 04:18:24;;;;;;;54.42;7.35;;;;;;;25.06;48.40;98045.97;7305663;19;130299;-47
2021/12/04 04:20:50;;;;;;;17.20;2.25;;;;;;;25.15;48.48;98045.59;7306974;19;130198;-46
2021/12/04 04:23:15;;;;;;;31.98;3.80;;;;;;;25.22;47.35;98045.63;7309090;19;129057;-48
2021/12/04 04:25:40;;;;;;;13.27;1.77;;;;;;;25.29;47.97;98046.41;7305416;19;130564;-49
2021/12/04 04:28:06;;;;;;;16.83;2.17;;;;;;;25.24;48.08;98043.56;7311751;19;130474;-52
2021/12/04 04:30:31;;;;;;;25.03;3.17;;;;;;;25.15;47.76;98040.34;7305979;19;129562;-49
2021/12/04 04:32:56;;;;;;;22.30;3.67;;;;;;;25.08;48.49;98033.44;7308133;19;130247;-50
2021/12/04 04:35:25;;;;;;;48.95;7.07;;;;;;;24.90;48.44;98033.19;7288551;19;154753;-47
2021/12/04 04:57:27;;;;;;;28.83;4.03;;;;;;;24.73;49.11;98039.81;7298435;19;130283;-53
2021/12/04 05:02:29;;;;;;;35.03;5.38;;;;;;;23.82;51.66;98019.91;7295401;19;131402;-46
2021/12/04 05:10:32;;;;;;;53.67;7.40;;;;;;;23.66;51.64;98022.81;7300381;19;130538;-48
2021/12/04 05:13:01;;;;;;;53.95;6.80;;;;;;;23.62;52.50;98012.91;7294505;19;130286;-49
2021/12/04 05:15:44;;;;;;;41.20;5.65;;;;;;;23.53;52.85;98014.84;7298466;19;129934;-52
2021/12/04 05:18:34;;;;;;;28.00;4.07;;;;;;;23.53;52.45;98008.78;7302642;19;130774;-45
2021/12/04 05:21:05;;;;;;;29.77;4.43;;;;;;;23.49;52.81;98007.53;7298318;19;130131;-48
2021/12/04 05:23:49;;;;;;;43.88;5.55;;;;;;;23.49;53.09;98013.59;7299996;19;130414;-49
2021/12/04 05:26:21;;;;;;;81.82;9.80;;;;;;;23.43;52.95;98014.38;7292621;19;130655;-48
2021/12/04 05:28:47;;;;;;;47.70;6.50;;;;;;;23.40;52.99;98009.50;7299403;19;130894;-48
2021/12/04 05:31:13;;;;;;;45.88;6.25;;;;;;;23.39;53.25;98010.50;7289550;19;132484;-45
2021/12/04 05:33:39;;;;;;;38.45;5.30;;;;;;;23.37;53.54;98004.63;7300677;19;129771;-48
2021/12/04 05:36:05;;;;;;;35.03;4.37;;;;;;;23.36;53.49;98003.00;7296257;19;130176;-49
2021/12/04 05:38:31;;;;;;;20.27;2.47;;;;;;;23.31;53.30;98001.94;7307405;19;130057;-50
2021/12/04 05:40:56;;;;;;;45.10;6.07;;;;;;;23.35;52.85;98001.41;7295286;19;131060;-49
2021/12/04 05:43:22;;;;;;;27.98;3.65;;;;;;;23.38;53.28;98005.44;7301998;19;147951;-50
2021/12/04 05:45:59;;;;;;;15.82;2.63;;;;;;;23.32;53.46;97999.13;7305356;19;129211;-52
2021/12/04 05:48:37;;;;;;;24.85;3.45;;;;;;;23.36;53.41;97986.44;7309237;19;130517;-53
2021/12/04 05:53:41;;;;;;;21.13;3.08;;;;;;;23.39;53.10;97991.34;7304789;19;129624;-48
2021/12/04 05:56:06;;;;;;;14.98;2.42;;;;;;;23.38;53.30;97995.78;7305119;19;129690;-52
2021/12/04 05:58:33;;;;;;;22.65;3.13;;;;;;;23.31;54.14;97994.91;7310510;19;129262;-49
2021/12/04 06:01:03;;;;;;;20.40;2.58;;;;;;;23.22;52.97;97993.38;7303602;19;130534;-52
2021/12/04 06:03:28;;;;;;;25.58;3.75;;;;;;;23.21;54.37;97997.00;7309653;19;130455;-51
2021/12/04 06:05:54;;;;;;;12.13;2.10;;;;;;;23.14;53.13;97983.00;7303880;19;130465;-49
2021/12/04 06:08:19;;;;;;;26.02;3.17;;;;;;;23.25;53.05;97991.16;7309316;19;128913;-49
2021/12/04 06:10:47;;;;;;;28.33;4.22;;;;;;;23.36;52.45;97997.75;7300697;19;131080;-50
2021/12/04 06:13:12;;;;;;;8.88;1.58;;;;;;;23.40;52.93;97993.78;7307643;19;130269;-51
2021/12/04 06:15:37;;;;;;;18.58;2.47;;;;;;;23.43;52.39;97998.63;7305982;19;129163;-49
2021/12/04 06:18:03;;;;;;;29.35;4.05;;;;;;;23.49;52.40;97997.88;7306803;19;153096;-54
2021/12/04 06:23:12;;;;;;;33.17;3.97;;;;;;;23.66;51.87;98009.72;7305285;19;130428;-47
2021/12/04 06:25:38;;;;;;;25.58;2.97;;;;;;;23.70;51.54;98005.69;7301564;19;129320;-47
2021/12/04 06:28:04;;;;;;;21.17;2.60;;;;;;;23.77;51.62;98005.72;7308312;19;129182;-47
2021/12/04 06:30:35;;;;;;;34.27;3.97;;;;;;;23.73;51.80;97994.81;7298422;19;130446;-49
2021/12/04 06:33:01;;;;;;;43.63;6.20;;;;;;;23.92;51.15;98003.81;7305001;19;131716;-51
2021/12/04 06:35:26;;;;;;;31.20;4.50;;;;;;;24.00;51.45;98001.06;7298688;19;129413;-49
2021/12/04 06:37:51;;;;;;;23.45;4.03;;;;;;;24.02;50.60;98001.69;7295907;19;154670;-50
2021/12/04 06:40:20;;;;;;;22.10;3.10;;;;;;;24.06;51.14;98003.75;7307182;19;130165;-47
2021/12/04 06:42:46;;;;;;;21.27;2.75;;;;;;;24.13;51.03;98001.16;7302308;19;130514;-47
2021/12/04 06:45:12;;;;;;;23.77;2.63;;;;;;;24.14;51.01;98003.56;7303676;19;128861;-48
2021/12/04 06:47:40;;;;;;;17.20;2.30;;;;;;;24.23;50.67;97999.78;7305502;19;129789;-47
2021/12/04 06:50:13;;;;;;;15.10;2.05;;;;;;;24.23;50.42;98002.41;7309081;19;130308;-51
2021/12/04 06:52:43;;;;;;;14.18;1.88;;;;;;;24.22;50.70;98000.78;7311459;19;130762;-50
2021/12/04 06:55:08;;;;;;;14.18;1.90;;;;;;;24.22;50.14;97995.53;7309186;19;130071;-49
2021/12/04 06:57:37;;;;;;;19.90;2.65;;;;;;;24.23;50.62;97997.13;7314347;19;129058;-45
2021/12/04 07:00:06;;;;;;;33.20;4.18;;;;;;;24.21;50.22;97995.72;7307623;19;130128;-48
2021/12/04 07:02:31;;;;;;;23.88;3.15;;;;;;;24.20;50.30;98000.16;7312889;19;131648;-50
2021/12/04 07:04:57;;;;;;;31.85;4.80;;;;;;;24.15;50.69;97994.69;7305205;19;151446;-50
2021/12/04 07:07:22;;;;;;;32.80;3.85;;;;;;;24.15;50.99;97985.97;7310720;19;129850;-48
2021/12/04 07:09:47;;;;;;;13.93;1.98;;;;;;;24.09;51.22;97989.41;7314453;19;136123;-53
2021/12/04 07:12:13;;;;;;;21.92;2.85;;;;;;;24.03;50.91;97985.72;7312496;19;158500;-46
2021/12/04 07:14:38;;;;;;;15.88;1.98;;;;;;;24.02;51.24;97991.16;7312257;19;137106;-49
2021/12/04 07:17:04;;;;;;;51.80;4.88;;;;;;;23.95;51.56;97993.72;7312923;19;133227;-46
2021/12/04 07:19:32;;;;;;;36.65;4.57;;;;;;;23.90;51.54;97990.09;7302441;19;129968;-49
2021/12/04 07:21:58;;;;;;;40.10;5.22;;;;;;;23.85;51.15;97995.88;7303940;19;129874;-47
2021/12/04 07:24:23;;;;;;;48.87;5.47;;;;;;;23.79;51.26;97999.28;7303475;19;131013;-48
2021/12/04 07:26:49;;;;;;;51.88;6.68;;;;;;;23.75;51.70;97992.78;7305481;19;129290;-45
2021/12/04 07:29:14;;;;;;;19.60;2.45;;;;;;;23.62;51.44;97974.34;7310000;19;131050;-48
2021/12/04 07:31:40;;;;;;;24.73;3.03;;;;;;;23.66;52.00;97983.47;7307943;19;139137;-48
2021/12/04 07:34:06;;;;;;;24.98;3.20;;;;;;;23.63;51.99;97968.13;7309925;19;130642;-47
2021/12/04 07:36:32;;;;;;;32.20;3.45;;;;;;;23.61;52.47;97972.72;7310616;19;129159;-48
2021/12/04 07:38:59;;;;;;;19.17;2.30;;;;;;;23.54;52.02;97961.38;7309624;19;129332;-47
2021/12/04 07:41:25;;;;;;;28.60;3.38;;;;;;;23.53;52.71;97956.31;7309807;19;129674;-44
2021/12/04 07:43:51;;;;;;;25.98;3.33;;;;;;;23.50;52.77;97962.78;7308018;19;129577;-48
2021/12/04 07:46:17;;;;;;;27.63;3.20;;;;;;;23.46;52.22;97961.53;7308580;19;129977;-48
2021/12/04 07:48:42;;;;;;;26.27;3.70;;;;;;;23.44;52.44;97965.31;7308299;19;129114;-50
2021/12/04 07:51:07;;;;;;;18.77;2.42;;;;;;;23.44;52.47;97960.91;7305613;19;135797;-55
2021/12/04 07:53:33;;;;;;;21.33;2.80;;;;;;;23.41;52.50;97966.53;7309052;19;156345;-49
2021/12/04 07:55:58;;;;;;;27.77;3.83;;;;;;;23.40;52.48;97967.53;7303194;19;142819;-51
2021/12/04 07:58:23;;;;;;;19.33;2.88;;;;;;;23.34;52.88;97977.97;7310066;19;129140;-47
2021/12/04 08:00:49;;;;;;;27.95;4.22;;;;;;;23.34;52.61;97978.78;7311193;19;157337;-51
2021/12/04 08:03:14;;;;;;;42.17;6.20;;;;;;;23.34;52.55;97981.41;7305561;19;130912;-45
2021/12/04 08:05:40;;;;;;;20.50;2.83;;;;;;;23.24;53.04;97967.78;7299722;19;129862;-50
2021/12/04 08:08:08;;;;;;;22.67;3.43;;;;;;;23.28;53.26;97978.72;7311264;19;158873;-48
2021/12/04 08:10:34;;;;;;;21.15;2.85;;;;;;;23.28;53.06;97983.97;7303952;19;159063;-52
2021/12/04 08:13:01;;;;;;;29.02;4.10;;;;;;;23.27;53.03;97977.91;7311690;19;129202;-46
2021/12/04 08:15:27;;;;;;;27.40;4.00;;;;;;;23.24;52.90;97975.63;7308623;19;129281;-47
2021/12/04 08:17:52;;;;;;;30.70;4.40;;;;;;;23.21;53.01;97968.16;7308784;19;141488;-52
2021/12/04 08:20:25;;;;;;;15.30;2.33;;;;;;;23.20;53.02;97967.34;7311701;19;130403;-50
2021/12/04 08:22:51;;;;;;;35.63;5.18;;;;;;;23.20;53.09;97971.78;7303657;19;130223;-50
2021/12/04 08:25:18;;;;;;;15.63;2.27;;;;;;;23.21;53.65;97962.91;7305793;19;130382;-50
2021/12/04 08:27:43;;;;;;;17.40;2.47;;;;;;;23.20;53.14;97967.34;7309840;19;131341;-47
2021/12/04 08:30:12;;;;;;;24.48;3.17;;;;;;;23.18;53.81;97965.91;7305917;19;129539;-50
2021/12/04 08:32:37;;;;;;;29.85;4.45;;;;;;;23.18;53.71;97964.13;7302530;19;130149;-50
2021/12/04 08:35:04;;;;;;;32.35;4.20;;;;;;;23.18;53.63;97963.28;7300140;19;133106;-46
2021/12/04 08:37:29;;;;;;;32.05;5.20;;;;;;;23.22;53.67;97964.53;7304079;19;130429;-48
2021/12/04 08:39:55;;;;;;;29.42;4.47;;;;;;;23.23;53.50;97960.91;7303525;19;130502;-50
2021/12/04 08:42:20;;;;;;;37.25;5.57;;;;;;;23.24;53.42;97957.28;7301376;19;130858;-46
2021/12/04 08:44:47;;;;;;;20.33;2.75;;;;;;;23.17;52.68;97944.13;7301158;19;129924;-47
2021/12/04 08:47:13;;;;;;;29.50;4.00;;;;;;;23.25;53.21;97943.97;7302413;19;131039;-47
2021/12/04 08:49:38;;;;;;;13.05;2.10;;;;;;;23.25;53.12;97943.19;7310975;19;155940;-52
2021/12/04 08:52:04;;;;;;;16.98;2.22;;;;;;;23.24;53.32;97952.03;7311351;19;129033;-50
2021/12/04 08:54:31;;;;;;;42.77;4.93;;;;;;;23.25;53.16;97945.81;7307062;19;129175;-50
2021/12/04 08:56:56;;;;;;;27.58;4.40;;;;;;;23.26;52.84;97947.41;7300679;19;130543;-46
2021/12/04 08:59:22;;;;;;;42.88;6.32;;;;;;;23.24;52.79;97952.03;7296681;19;129934;-48
2021/12/04 09:01:48;;;;;;;24.80;3.47;;;;;;;23.22;53.01;97935.72;7299787;19;129191;-52
2021/12/04 09:04:23;;;;;;;33.40;4.73;;;;;;;23.31;52.76;97944.25;7297988;19;129507;-51
2021/12/04 09:06:50;;;;;;;42.63;6.38;;;;;;;23.26;53.39;97947.41;7297339;19;129774;-48
2021/12/04 09:09:16;;;;;;;;;;;;;;;23.27;53.03;97946.44;7299698;19;129174;-50
2021/12/04 09:11:46;;;;;;;24.25;3.55;;;;;;;23.31;53.15;97947.69;7296483;19;130167;-47
2021/12/04 09:14:12;;;;;;;53.78;7.47;;;;;;;23.22;47.77;97938.34;7296483;19;129796;-50
2021/12/04 09:16:38;;;;;;;26.40;3.55;;;;;;;23.23;48.09;97939.94;7307208;19;129781;-51
2021/12/04 09:19:04;;;;;;;19.13;2.83;;;;;;;23.29;50.25;97944.44;7307308;19;129858;-52
2021/12/04 09:21:30;;;;;;;34.13;4.43;;;;;;;23.31;51.01;97939.81;7307714;19;129634;-45
2021/12/04 09:29:41;;;;;;;57.80;8.88;;;;;;;23.29;51.42;97926.09;7292953;19;131117;-47
2021/12/04 09:35:12;;;;;;;37.67;5.35;;;;;;;23.36;51.69;97934.81;7293676;19;130909;-51
2021/12/04 10:02:12;;;;;;;23.90;3.88;;;;;;;23.47;50.80;97909.88;7299396;19;130718;-51
2021/12/04 10:04:56;;;;;;;40.78;6.78;;;;;;;23.44;51.24;97900.56;7295269;19;130010;-50
2021/12/04 10:16:06;;;;;;;21.15;3.03;;;;;;;23.41;50.76;97885.22;7306475;19;129301;-49
2021/12/04 10:22:05;;;;;;;15.10;2.30;;;;;;;23.41;50.31;97879.97;7311260;19;129909;-54
2021/12/04 10:24:27;;;;;;;21.67;2.75;;;;;;;23.39;49.92;97860.22;7299617;19;130521;-46
2021/12/04 10:32:42;;;;;;;24.52;4.10;;;;;;;23.43;50.25;97857.00;7307416;19;129005;-50
2021/12/04 10:35:12;;;;;;;16.25;2.55;;;;;;;23.43;50.12;97862.25;7305801;19;130375;-48
2021/12/04 10:37:47;;;;;;;21.75;3.65;;;;;;;23.41;50.42;97856.38;7307269;19;129363;-48
2021/12/04 10:40:13;;;;;;;25.63;3.58;;;;;;;23.41;49.72;97856.38;7307639;19;129154;-52
2021/12/04 10:42:59;;;;;;;14.57;2.27;;;;;;;23.38;49.87;97854.16;7308627;19;130231;-51
2021/12/04 10:45:37;;;;;;;22.80;3.38;;;;;;;23.41;49.89;97858.19;7304373;19;130399;-46
2021/12/04 10:48:12;;;;;;;33.55;4.88;;;;;;;23.43;49.76;97857.00;7304795;19;131113;-49
2021/12/04 10:50:48;;;;;;;27.98;3.92;;;;;;;23.41;49.83;97851.13;7307093;19;129349;-49
2021/12/04 10:53:21;;;;;;;22.83;3.17;;;;;;;23.39;50.32;97842.63;7304848;19;130174;-51
2021/12/04 11:01:40;;;;;;;15.55;2.28;;;;;;;23.35;49.77;97838.81;7307074;19;131584;-51
2021/12/04 11:04:23;;;;;;;22.55;3.20;;;;;;;23.39;50.27;97829.53;7304145;19;129820;-48
2021/12/04 11:23:57;;;;;;;17.65;2.75;;;;;;;23.37;49.75;97786.94;7304200;19;129043;-49
2021/12/04 11:35:19;;;;;;;35.53;4.57;;;;;;;23.39;49.44;97787.56;7305669;19;128955;-48
2021/12/04 11:43:17;;;;;;;21.30;2.65;;;;;;;23.40;49.17;97793.63;7310914;19;129332;-49
2021/12/04 11:46:01;;;;;;;24.10;3.28;;;;;;;23.40;49.74;97789.22;7309627;19;129729;-48
2021/12/04 11:48:38;;;;;;;29.45;4.03;;;;;;;23.40;49.78;97783.13;7312251;19;130606;-48
2021/12/04 11:51:10;;;;;;;25.42;3.22;;;;;;;23.39;49.14;97774.44;7310656;19;129675;-48
2021/12/04 11:53:35;;;;;;;31.77;5.05;;;;;;;23.36;49.54;97780.09;7302220;19;129353;-48
2021/12/04 11:56:02;;;;;;;18.88;2.92;;;;;;;23.42;48.97;97770.66;7304213;19;130563;-49
2021/12/04 11:58:33;;;;;;;41.35;5.18;;;;;;;23.40;48.73;97778.72;7308409;19;131039;-47
2021/12/04 12:01:04;;;;;;;18.13;2.85;;;;;;;23.37;49.30;97768.59;7305873;19;130954;-49
2021/12/04 12:03:32;;;;;;;21.77;3.63;;;;;;;23.39;49.42;97761.34;7314499;19;128831;-52
2021/12/04 12:06:06;;;;;;;23.77;3.45;;;;;;;23.36;49.08;97760.91;7308135;19;130477;-51
2021/12/04 12:08:37;;;;;;;22.23;3.50;;;;;;;23.38;48.44;97757.13;7308095;19;130579;-47
2021/12/04 12:11:24;;;;;;;36.80;4.65;;;;;;;23.34;48.77;97748.00;7307119;19;130498;-47
2021/12/04 12:13:56;;;;;;;45.60;7.03;;;;;;;23.34;49.08;97744.59;7310705;19;129072;-48
2021/12/04 12:16:25;;;;;;;30.52;4.32;;;;;;;23.36;49.21;97740.75;7313472;19;129157;-53
2021/12/04 12:18:56;;;;;;;27.42;3.80;;;;;;;23.38;48.52;97733.50;7311740;19;130173;-54
2021/12/04 12:21:29;;;;;;;27.48;4.10;;;;;;;23.38;49.09;97733.50;7311065;19;130809;-47
2021/12/04 12:27:06;;;;;;;23.00;3.30;;;;;;;23.36;48.46;97725.03;7311755;19;130469;-52
2021/12/04 12:38:48;;;;;;;41.92;5.88;;;;;;;23.38;49.09;97732.69;7300460;19;129908;-49
2021/12/04 12:41:32;;;;;;;47.80;6.20;;;;;;;23.36;48.72;97732.06;7302635;19;130094;-48
2021/12/04 12:44:03;;;;;;;39.13;5.60;;;;;;;23.36;49.22;97732.06;7300983;19;158639;-46
2021/12/04 12:46:44;;;;;;;48.75;6.45;;;;;;;23.35;49.37;97733.09;7300083;19;130797;-49
2021/12/04 12:49:20;;;;;;;26.02;3.75;;;;;;;23.34;49.23;97737.50;7302138;19;130684;-48
2021/12/04 12:51:54;;;;;;;32.00;4.72;;;;;;;23.32;48.97;97713.28;7297416;19;158728;-47
2021/12/04 12:54:34;;;;;;;29.58;4.13;;;;;;;23.36;48.47;97713.72;7299840;19;130983;-47
2021/12/04 12:57:14;;;;;;;41.78;5.85;;;;;;;23.37;48.92;97708.28;7298738;19;131643;-48
2021/12/04 12:59:56;;;;;;;36.22;4.85;;;;;;;23.34;49.23;97702.63;7302689;19;129846;-48
2021/12/04 13:14:06;;;;;;;44.40;6.85;;;;;;;23.32;48.97;97692.31;7299442;19;131256;-48
2021/12/04 13:16:32;;;;;;;38.63;5.20;;;;;;;23.32;49.23;97697.56;7301105;19;130763;-48
2021/12/04 13:19:02;;;;;;;26.08;3.95;;;;;;;23.31;48.81;97695.97;7302703;19;129778;-47
2021/12/04 13:21:27;;;;;;;35.03;4.85;;;;;;;23.32;48.67;97694.94;7301896;19;129702;-48
2021/12/04 13:23:56;;;;;;;44.92;7.03;;;;;;;23.35;48.77;97691.13;7298350;19;130685;-47
2021/12/04 13:26:30;;;;;;;60.30;7.72;;;;;;;23.33;48.94;97683.47;7301213;19;129560;-48
2021/12/04 13:28:58;;;;;;;37.22;5.25;;;;;;;23.22;49.30;97671.69;7305550;19;129771;-48
2021/12/04 13:31:23;;;;;;;43.33;5.72;;;;;;;23.31;48.99;97689.91;7301485;19;129380;-49
2021/12/04 13:33:51;;;;;;;74.65;10.77;;;;;;;23.31;48.67;97690.72;7295781;19;130184;-49
2021/12/04 13:36:21;;;;;;;41.72;6.07;;;;;;;23.35;48.73;97680.66;7302743;19;129377;-48
2021/12/04 13:38:51;;;;;;;21.20;3.15;;;;;;;23.34;49.23;97668.56;7308599;19;129064;-48
2021/12/04 13:41:17;;;;;;;16.92;2.67;;;;;;;23.32;49.60;97671.34;7309027;19;130437;-48
2021/12/04 13:43:50;;;;;;;47.45;6.95;;;;;;;23.35;49.05;97678.03;7303739;19;131359;-49
2021/12/04 13:46:15;;;;;;;37.72;5.40;;;;;;;23.30;48.83;97683.88;7305720;19;131074;-48
2021/12/04 13:48:40;;;;;;;17.08;2.63;;;;;;;23.33;48.78;97688.72;7304400;19;146194;-47
2021/12/04 13:51:06;;;;;;;26.50;4.22;;;;;;;23.29;49.66;97682.22;7307356;19;128857;-50
2021/12/04 13:53:34;;;;;;;31.20;4.50;;;;;;;23.30;48.94;97683.88;7303998;19;130636;-48
2021/12/04 13:56:08;;;;;;;16.77;2.92;;;;;;;23.24;48.77;97687.22;7304472;19;130658;-48
2021/12/04 13:58:34;;;;;;;47.42;6.93;;;;;;;23.21;48.92;97687.63;7300140;19;130415;-45
2021/12/04 14:01:02;;;;;;;18.73;3.22;;;;;;;23.17;48.25;97681.16;7307646;19;130212;-48
2021/12/04 14:03:31;;;;;;;53.17;6.95;;;;;;;23.15;48.71;97681.34;7306146;19;129805;-49
2021/12/04 14:05:57;;;;;;;19.38;3.10;;;;;;;23.11;48.96;97669.63;7303796;19;130634;-46
2021/12/04 14:08:23;;;;;;;26.38;4.10;;;;;;;23.12;48.51;97663.38;7307546;19;129182;-47
2021/12/04 14:10:49;;;;;;;26.92;3.78;;;;;;;23.15;48.86;97659.56;7304977;19;130706;-47
2021/12/04 14:13:17;;;;;;;33.73;4.50;;;;;;;23.13;49.04;97672.06;7305665;19;129954;-48
2021/12/04 14:15:45;;;;;;;18.73;2.92;;;;;;;23.12;48.97;97662.59;7305443;19;130423;-47